createdAt,value
2022-12-31T00:00:11.944Z,10.87
2022-12-31T00:05:13.945Z,10.87
2022-12-31T00:10:14.814Z,10.90
2022-12-31T00:15:15.969Z,10.89
2022-12-31T00:20:16.739Z,10.97
2022-12-31T00:25:17.912Z,10.94
2022-12-31T00:30:18.658Z,11.01
2022-12-31T00:35:19.433Z,10.98
2022-12-31T00:40:20.224Z,11.06
2022-12-31T00:45:21.327Z,10.99
2022-12-31T00:50:22.059Z,11.02
2022-12-31T00:55:23.192Z,11.02
2022-12-31T01:00:24.028Z,10.96
2022-12-31T01:05:24.816Z,10.98
2022-12-31T01:10:44.254Z,11.04
2022-12-31T01:15:45.234Z,11.06
2022-12-31T01:20:45.962Z,10.99
2022-12-31T01:25:46.806Z,11.02
2022-12-31T01:30:47.545Z,10.99
2022-12-31T01:35:48.585Z,11.04
2022-12-31T01:40:49.323Z,11.12
2022-12-31T01:45:53.524Z,11.11
2022-12-31T01:50:54.417Z,11.17
2022-12-31T01:55:58.669Z,11.21
2022-12-31T02:00:59.841Z,11.30
2022-12-31T02:06:07.910Z,11.38
2022-12-31T02:11:28.362Z,11.35
2022-12-31T02:17:03.151Z,11.41
2022-12-31T02:28:00.947Z,11.45
2022-12-31T02:33:25.409Z,11.43
2022-12-31T02:38:31.135Z,11.50
2022-12-31T02:43:31.967Z,11.59
2022-12-31T02:50:29.627Z,11.57
2022-12-31T02:55:42.174Z,11.51
2022-12-31T03:01:09.250Z,11.48
2022-12-31T03:06:11.354Z,11.48
2022-12-31T03:12:45.307Z,11.53
2022-12-31T03:20:17.081Z,11.48
2022-12-31T03:25:37.152Z,11.49
2022-12-31T03:30:40.201Z,11.47
2022-12-31T03:35:42.833Z,11.47
2022-12-31T03:40:47.516Z,11.53
2022-12-31T03:45:53.096Z,11.51
2022-12-31T03:50:53.908Z,11.58
2022-12-31T03:55:54.978Z,11.63
2022-12-31T04:00:55.909Z,11.62
2022-12-31T04:05:56.783Z,11.66
2022-12-31T04:10:57.735Z,11.57
2022-12-31T04:15:58.691Z,11.58
2022-12-31T04:21:04.458Z,11.59
2022-12-31T04:26:05.190Z,11.69
2022-12-31T04:31:05.996Z,11.75
2022-12-31T04:36:07.791Z,11.80
2022-12-31T04:41:17.628Z,11.79
2022-12-31T04:46:21.245Z,11.91
2022-12-31T04:51:23.152Z,11.83
2022-12-31T04:56:24.721Z,11.90
2022-12-31T05:01:25.601Z,11.92
2022-12-31T05:06:26.522Z,11.95
2022-12-31T05:11:27.609Z,12.01
2022-12-31T05:16:28.360Z,12.15
2022-12-31T05:21:29.235Z,12.20
2022-12-31T05:26:30.016Z,12.26
2022-12-31T05:31:30.790Z,12.27
2022-12-31T05:36:31.524Z,12.36
2022-12-31T05:41:32.343Z,12.36
2022-12-31T05:46:33.135Z,12.36
2022-12-31T05:51:34.318Z,12.38
2022-12-31T05:56:35.092Z,12.44
2022-12-31T06:01:35.945Z,12.47
2022-12-31T06:06:36.899Z,12.54
2022-12-31T06:11:37.910Z,12.54
2022-12-31T06:16:39.931Z,12.60
2022-12-31T06:21:40.757Z,12.59
2022-12-31T06:26:41.521Z,12.71
2022-12-31T06:31:42.300Z,12.74
2022-12-31T06:36:43.100Z,12.70
2022-12-31T06:41:43.980Z,12.79
2022-12-31T06:46:45.258Z,12.76
2022-12-31T06:51:47.292Z,12.80
2022-12-31T06:56:48.549Z,12.85
2022-12-31T07:03:38.314Z,12.84
2022-12-31T07:08:55.828Z,12.80
2022-12-31T07:14:31.751Z,12.91
2022-12-31T07:21:31.669Z,12.92
2022-12-31T07:28:07.860Z,12.84
2022-12-31T07:33:59.498Z,12.89
2022-12-31T07:39:12.991Z,12.86
2022-12-31T07:44:34.575Z,12.81
2022-12-31T07:49:37.897Z,12.84
2022-12-31T07:54:38.679Z,12.74
2022-12-31T08:00:22.716Z,12.75
2022-12-31T08:05:57.826Z,12.78
2022-12-31T08:11:20.717Z,12.77
2022-12-31T08:16:22.043Z,12.77
2022-12-31T08:23:25.161Z,12.83
2022-12-31T08:29:34.164Z,12.79
2022-12-31T08:34:47.679Z,12.83
2022-12-31T08:40:06.548Z,12.85
2022-12-31T08:45:24.108Z,12.78
2022-12-31T08:50:25.450Z,12.78
2022-12-31T08:55:26.861Z,12.79
2022-12-31T09:00:30.011Z,12.86
2022-12-31T09:06:01.590Z,12.97
2022-12-31T09:14:35.856Z,12.98
2022-12-31T09:19:36.648Z,13.03
2022-12-31T09:24:38.214Z,13.10
2022-12-31T09:30:03.971Z,13.38
2022-12-31T09:35:54.525Z,13.43
2022-12-31T09:41:12.208Z,13.58
2022-12-31T09:46:50.900Z,13.56
2022-12-31T09:53:42.194Z,13.59
2022-12-31T09:59:10.282Z,13.79
2022-12-31T10:11:18.735Z,13.60
2022-12-31T10:16:53.476Z,13.47
2022-12-31T10:23:53.292Z,14.07
2022-12-31T10:29:41.655Z,14.26
2022-12-31T10:41:58.062Z,14.29
2022-12-31T10:49:09.847Z,14.72
2022-12-31T10:56:55.781Z,14.56
2022-12-31T11:06:17.379Z,14.29
2022-12-31T11:11:44.179Z,14.35
2022-12-31T11:17:39.703Z,14.54
2022-12-31T11:24:53.701Z,14.75
2022-12-31T11:36:34.496Z,14.91
2022-12-31T11:41:51.242Z,15.10
2022-12-31T11:47:21.403Z,15.27
2022-12-31T11:54:02.090Z,15.28
2022-12-31T11:59:14.372Z,14.96
2022-12-31T12:04:19.705Z,14.97
2022-12-31T12:09:28.548Z,15.20
2022-12-31T12:14:35.796Z,15.13
2022-12-31T12:19:43.331Z,14.84
2022-12-31T12:24:56.170Z,14.51
2022-12-31T12:29:57.590Z,14.35
2022-12-31T12:34:59.202Z,14.48
2022-12-31T12:40:03.084Z,14.70
2022-12-31T12:45:13.328Z,14.48
2022-12-31T12:50:21.090Z,14.61
2022-12-31T12:55:53.495Z,14.59
2022-12-31T13:01:47.124Z,14.52
2022-12-31T13:13:42.408Z,14.41
2022-12-31T13:20:56.035Z,14.90
2022-12-31T13:28:34.825Z,14.63
2022-12-31T13:33:42.059Z,14.86
2022-12-31T13:38:52.275Z,14.62
2022-12-31T13:44:27.227Z,14.36
2022-12-31T13:49:47.771Z,13.98
2022-12-31T13:54:57.536Z,13.99
2022-12-31T14:00:03.482Z,13.91
2022-12-31T14:06:03.664Z,13.95
2022-12-31T14:11:26.518Z,13.86
2022-12-31T14:18:08.097Z,13.76
2022-12-31T14:24:05.136Z,13.76
2022-12-31T14:29:46.570Z,13.68
2022-12-31T14:35:05.188Z,13.55
2022-12-31T14:40:40.943Z,13.48
2022-12-31T14:49:05.408Z,13.38
2022-12-31T14:54:28.976Z,13.39
2022-12-31T14:59:34.437Z,13.44
2022-12-31T15:04:45.297Z,13.35
2022-12-31T15:10:02.320Z,13.28
2022-12-31T15:15:24.880Z,13.23
2022-12-31T15:22:11.002Z,13.22
2022-12-31T15:27:35.136Z,13.16
2022-12-31T15:32:40.144Z,13.02
2022-12-31T15:37:41.287Z,13.07
2022-12-31T15:42:54.705Z,13.03
2022-12-31T15:47:58.665Z,13.00
2022-12-31T15:53:01.969Z,12.90
2022-12-31T15:58:11.786Z,12.94
2022-12-31T16:03:24.813Z,12.88
2022-12-31T16:08:30.059Z,12.85
2022-12-31T16:13:31.961Z,12.91
2022-12-31T16:18:43.728Z,12.81
2022-12-31T16:23:49.704Z,12.78
2022-12-31T16:28:51.392Z,12.74
2022-12-31T16:34:01.415Z,12.72
2022-12-31T16:39:43.888Z,12.66
2022-12-31T18:47:24.003Z,12.32
2022-12-31T18:52:24.945Z,12.25
2022-12-31T18:57:26.121Z,12.13
2022-12-31T19:02:26.933Z,12.04
2022-12-31T19:07:27.710Z,12.02
2022-12-31T19:12:28.526Z,12.06
2022-12-31T19:17:29.317Z,12.04
2022-12-31T19:22:30.265Z,12.03
2022-12-31T19:27:30.994Z,12.05
2022-12-31T19:32:31.828Z,12.02
2022-12-31T19:37:32.567Z,11.95
2022-12-31T19:42:33.351Z,12.06
2022-12-31T19:47:34.090Z,12.05
2022-12-31T19:52:35.075Z,11.96
2022-12-31T19:57:39.078Z,11.92
2022-12-31T20:02:40.871Z,12.05
2022-12-31T20:07:42.351Z,11.90
2022-12-31T20:12:44.703Z,11.88
2022-12-31T20:17:45.776Z,11.92
2022-12-31T20:22:46.810Z,11.92
2022-12-31T20:27:47.587Z,11.87
2022-12-31T20:32:51.006Z,11.95
2022-12-31T20:37:51.789Z,11.88
2022-12-31T20:42:52.605Z,11.76
2022-12-31T20:47:53.327Z,11.72
2022-12-31T20:52:54.528Z,11.82
2022-12-31T20:57:55.362Z,11.81
2022-12-31T21:03:04.986Z,11.68
2022-12-31T21:08:11.575Z,11.62
2022-12-31T21:13:12.351Z,11.63
2022-12-31T21:18:13.186Z,11.67
2022-12-31T21:23:15.044Z,11.71
2022-12-31T21:28:15.819Z,11.70
2022-12-31T21:33:16.635Z,11.59
2022-12-31T21:38:18.029Z,11.61
2022-12-31T21:43:18.983Z,11.56
2022-12-31T21:48:19.770Z,11.53
2022-12-31T21:53:26.158Z,11.59
2022-12-31T21:58:29.921Z,11.80
2022-12-31T22:03:31.471Z,11.65
2022-12-31T22:08:32.417Z,11.71
2022-12-31T22:13:34.069Z,11.82
2022-12-31T22:18:40.176Z,11.77
2022-12-31T22:23:41.679Z,11.78
2022-12-31T22:28:44.036Z,11.69
2022-12-31T22:33:45.727Z,11.73
2022-12-31T22:38:47.582Z,11.61
2022-12-31T22:43:55.968Z,11.60
2022-12-31T22:49:03.166Z,11.61
2022-12-31T22:54:04.351Z,11.44
2022-12-31T22:59:05.271Z,11.27
2022-12-31T23:04:06.250Z,11.13
2022-12-31T23:09:25.695Z,11.10
2022-12-31T23:14:44.915Z,11.03
2022-12-31T23:20:04.349Z,11.00
2022-12-31T23:25:05.469Z,10.88
2022-12-31T23:30:07.271Z,10.81
2022-12-31T23:35:10.047Z,11.09
2022-12-31T23:40:15.733Z,11.11
2022-12-31T23:45:19.990Z,11.12
2022-12-31T23:50:20.715Z,11.12
2022-12-31T23:55:21.622Z,11.15
